createdAt,value
2018-09-05T00:00:30.191Z,1004.69
2018-09-05T00:01:30.214Z,1004.67
2018-09-05T00:02:30.238Z,1004.69
2018-09-05T00:03:30.256Z,1004.70
2018-09-05T00:04:30.287Z,1004.70
2018-09-05T00:05:30.309Z,1004.74
2018-09-05T00:06:30.327Z,1004.74
2018-09-05T00:07:30.358Z,1004.71
2018-09-05T00:08:30.385Z,1004.74
2018-09-05T00:09:30.429Z,1004.75
2018-09-05T00:10:30.433Z,1004.75
2018-09-05T00:11:30.455Z,1004.79
2018-09-05T00:12:30.479Z,1004.76
2018-09-05T00:13:30.516Z,1004.75
2018-09-05T00:14:30.522Z,1004.80
2018-09-05T00:15:30.554Z,1004.77
2018-09-05T00:16:30.574Z,1004.81
2018-09-05T00:17:30.598Z,1004.81
2018-09-05T00:18:30.620Z,1004.78
2018-09-05T00:20:30.674Z,1004.69
2018-09-05T00:21:30.699Z,1004.74
2018-09-05T00:22:30.725Z,1004.72
2018-09-05T00:23:30.761Z,1004.74
2018-09-05T00:24:30.770Z,1004.75
2018-09-05T00:25:30.818Z,1004.77
2018-09-05T00:26:30.821Z,1004.79
2018-09-05T00:27:30.838Z,1004.78
2018-09-05T00:28:30.868Z,1004.79
2018-09-05T00:29:30.894Z,1004.75
2018-09-05T00:30:30.919Z,1004.74
2018-09-05T00:31:30.968Z,1004.69
2018-09-05T00:32:30.965Z,1004.69
2018-09-05T00:33:30.989Z,1004.75
2018-09-05T00:34:31.015Z,1004.71
2018-09-05T00:35:31.040Z,1004.71
2018-09-05T00:36:31.063Z,1004.73
2018-09-05T00:37:31.102Z,1004.72
2018-09-05T00:38:31.109Z,1004.71
2018-09-05T00:39:31.133Z,1004.73
2018-09-05T00:40:31.162Z,1004.71
2018-09-05T00:41:31.192Z,1004.70
2018-09-05T00:42:31.211Z,1004.65
2018-09-05T00:43:31.236Z,1004.71
2018-09-05T00:44:31.302Z,1004.69
2018-09-05T00:45:31.276Z,1004.72
2018-09-05T00:46:31.302Z,1004.75
2018-09-05T00:47:31.331Z,1004.73
2018-09-05T00:48:31.358Z,1004.72
2018-09-05T00:49:31.379Z,1004.73
2018-09-05T00:50:31.409Z,1004.70
2018-09-05T00:51:31.446Z,1004.72
2018-09-05T00:52:31.449Z,1004.68
2018-09-05T00:53:31.473Z,1004.71
2018-09-05T00:54:31.499Z,1004.72
2018-09-05T00:55:31.527Z,1004.70
2018-09-05T00:56:31.550Z,1004.71
2018-09-05T00:57:31.585Z,1004.70
2018-09-05T00:58:31.600Z,1004.70
2018-09-05T00:59:32.397Z,1004.72
2018-09-05T01:00:31.649Z,1004.69
2018-09-05T01:01:31.666Z,1004.71
2018-09-05T01:02:31.684Z,1004.73
2018-09-05T01:03:31.726Z,1004.72
2018-09-05T01:04:31.748Z,1004.70
2018-09-05T01:05:31.769Z,1004.68
2018-09-05T01:06:31.787Z,1004.67
2018-09-05T01:07:31.816Z,1004.63
2018-09-05T01:08:31.829Z,1004.67
2018-09-05T01:09:31.864Z,1004.64
2018-09-05T01:10:31.887Z,1004.68
2018-09-05T01:11:31.912Z,1004.70
2018-09-05T01:12:31.934Z,1004.66
2018-09-05T01:13:31.956Z,1004.66
2018-09-05T01:14:31.990Z,1004.66
2018-09-05T01:15:32.014Z,1004.64
2018-09-05T01:16:32.026Z,1004.69
2018-09-05T01:17:32.056Z,1004.67
2018-09-05T01:18:32.076Z,1004.70
2018-09-05T01:19:32.109Z,1004.67
2018-09-05T01:20:32.124Z,1004.70
2018-09-05T01:21:32.150Z,1004.73
2018-09-05T01:22:32.181Z,1004.69
2018-09-05T01:23:32.190Z,1004.70
2018-09-05T01:24:32.213Z,1004.71
2018-09-05T01:25:32.248Z,1004.70
2018-09-05T01:26:32.287Z,1004.75
2018-09-05T01:27:32.291Z,1004.73
2018-09-05T01:28:32.316Z,1004.76
2018-09-05T01:29:32.331Z,1004.76
2018-09-05T01:30:32.375Z,1004.76
2018-09-05T01:31:32.390Z,1004.75
2018-09-05T01:32:32.411Z,1004.76
2018-09-05T01:33:32.441Z,1004.80
2018-09-05T01:34:32.469Z,1004.83
2018-09-05T01:35:32.483Z,1004.82
2018-09-05T01:36:32.508Z,1004.79
2018-09-05T01:37:32.590Z,1004.81
2018-09-05T01:38:32.556Z,1004.79
2018-09-05T01:39:32.582Z,1004.81
2018-09-05T01:40:32.621Z,1004.83
2018-09-05T01:41:32.661Z,1004.85
2018-09-05T01:42:32.650Z,1004.79
2018-09-05T01:43:32.680Z,1004.79
2018-09-05T01:44:32.699Z,1004.78
2018-09-05T01:45:32.728Z,1004.75
2018-09-05T01:46:32.749Z,1004.77
2018-09-05T01:47:32.771Z,1004.78
2018-09-05T01:48:32.791Z,1004.75
2018-09-05T01:49:32.826Z,1004.73
2018-09-05T01:50:32.843Z,1004.74
2018-09-05T01:51:32.881Z,1004.73
2018-09-05T01:52:32.890Z,1004.69
2018-09-05T01:53:32.914Z,1004.69
2018-09-05T01:54:32.939Z,1004.71
2018-09-05T01:55:32.966Z,1004.74
2018-09-05T01:56:32.989Z,1004.74
2018-09-05T01:57:33.011Z,1004.75
2018-09-05T01:58:33.037Z,1004.77
2018-09-05T01:59:33.059Z,1004.79
2018-09-05T02:00:33.076Z,1004.77
2018-09-05T02:01:33.114Z,1004.79
2018-09-05T02:02:33.130Z,1004.85
2018-09-05T02:03:33.151Z,1004.84
2018-09-05T02:04:33.177Z,1004.84
2018-09-05T02:05:33.224Z,1004.84
2018-09-05T02:06:33.230Z,1004.86
2018-09-05T02:07:33.250Z,1004.87
2018-09-05T02:08:33.284Z,1004.90
2018-09-05T02:09:33.305Z,1004.86
2018-09-05T02:10:33.317Z,1004.86
2018-09-05T02:11:33.341Z,1004.88
2018-09-05T02:12:33.507Z,1004.88
2018-09-05T02:13:33.385Z,1004.91
2018-09-05T02:14:33.422Z,1004.87
2018-09-05T02:15:33.444Z,1004.85
2018-09-05T02:16:33.481Z,1004.87
2018-09-05T02:17:33.516Z,1004.93
2018-09-05T02:18:33.526Z,1004.90
2018-09-05T02:19:33.541Z,1004.85
2018-09-05T02:20:33.563Z,1004.90
2018-09-05T02:21:33.585Z,1004.87
2018-09-05T02:22:33.608Z,1004.89
2018-09-05T02:23:33.628Z,1004.87
2018-09-05T02:24:33.651Z,1004.87
2018-09-05T02:26:33.709Z,1004.87
2018-09-05T02:27:33.729Z,1004.89
2018-09-05T02:28:33.745Z,1004.90
2018-09-05T02:29:33.773Z,1004.91
2018-09-05T02:30:33.828Z,1004.92
2018-09-05T02:31:33.826Z,1004.91
2018-09-05T02:32:33.844Z,1004.93
2018-09-05T02:33:33.877Z,1004.94
2018-09-05T02:34:33.889Z,1004.95
2018-09-05T02:35:33.923Z,1004.95
2018-09-05T02:36:33.949Z,1004.95
2018-09-05T02:37:33.963Z,1004.99
2018-09-05T02:38:33.988Z,1005.02
2018-09-05T02:39:34.001Z,1005.01
2018-09-05T02:40:34.174Z,1005.01
2018-09-05T02:41:34.056Z,1004.99
2018-09-05T02:42:34.084Z,1004.99
2018-09-05T02:43:34.108Z,1004.99
2018-09-05T02:44:34.129Z,1004.97
2018-09-05T02:45:34.153Z,1004.98
2018-09-05T02:46:34.178Z,1004.98
2018-09-05T02:47:34.273Z,1004.97
2018-09-05T02:48:34.225Z,1004.98
2018-09-05T02:49:34.242Z,1004.97
2018-09-05T02:50:34.273Z,1004.98
2018-09-05T02:51:34.325Z,1004.98
2018-09-05T02:52:34.316Z,1005.01
2018-09-05T02:53:34.342Z,1005.01
2018-09-05T02:54:34.365Z,1005.02
2018-09-05T02:55:34.406Z,1005.02
2018-09-05T02:56:34.416Z,1005.03
2018-09-05T02:57:34.442Z,1005.04
2018-09-05T02:58:34.459Z,1005.01
2018-09-05T02:59:34.484Z,1005.05
2018-09-05T03:00:34.506Z,1005.01
2018-09-05T03:01:34.530Z,1004.96
2018-09-05T03:02:34.584Z,1004.98
2018-09-05T03:03:34.588Z,1004.96
2018-09-05T03:04:34.602Z,1004.99
2018-09-05T03:05:34.628Z,1004.98
2018-09-05T03:06:34.648Z,1004.97
2018-09-05T03:07:34.667Z,1004.96
2018-09-05T03:08:34.698Z,1004.99
2018-09-05T03:09:34.726Z,1004.97
2018-09-05T03:10:35.469Z,1004.97
2018-09-05T03:11:34.774Z,1004.98
2018-09-05T03:12:34.787Z,1004.98
2018-09-05T03:13:34.815Z,1004.98
2018-09-05T03:14:34.835Z,1004.98
2018-09-05T03:15:34.859Z,1004.98
2018-09-05T03:16:34.885Z,1004.96
2018-09-05T03:17:34.911Z,1004.95
2018-09-05T03:18:34.936Z,1004.94
2018-09-05T03:19:34.956Z,1004.96
2018-09-05T03:20:34.976Z,1004.95
2018-09-05T03:21:34.997Z,1004.99
2018-09-05T03:22:35.027Z,1004.94
2018-09-05T03:23:35.101Z,1004.95
2018-09-05T03:24:35.077Z,1004.95
2018-09-05T03:25:35.101Z,1004.93
2018-09-05T03:26:35.116Z,1004.97
2018-09-05T03:27:35.139Z,1004.93
2018-09-05T03:28:35.176Z,1004.95
2018-09-05T03:29:35.197Z,1004.94
2018-09-05T03:30:35.212Z,1004.93
2018-09-05T03:31:35.239Z,1004.91
2018-09-05T03:32:35.390Z,1004.93
2018-09-05T03:33:35.281Z,1004.94
2018-09-05T03:34:35.310Z,1004.91
2018-09-05T03:35:35.328Z,1004.95
2018-09-05T03:36:35.353Z,1004.97
2018-09-05T03:37:35.393Z,1004.89
2018-09-05T03:38:35.405Z,1004.91
2018-09-05T03:39:35.429Z,1004.96
2018-09-05T03:40:35.450Z,1004.96
2018-09-05T03:41:35.470Z,1004.93
2018-09-05T03:42:35.492Z,1004.94
2018-09-05T03:43:35.532Z,1004.92
2018-09-05T03:44:35.545Z,1004.95
2018-09-05T03:45:35.566Z,1004.94
2018-09-05T03:46:35.611Z,1004.96
2018-09-05T03:47:35.613Z,1004.94
2018-09-05T03:48:35.632Z,1004.93
2018-09-05T03:49:35.666Z,1004.96
2018-09-05T03:50:35.688Z,1004.95
2018-09-05T03:51:35.705Z,1004.94
2018-09-05T03:52:35.741Z,1004.95
2018-09-05T03:53:35.753Z,1004.98
2018-09-05T03:54:35.772Z,1004.97
2018-09-05T03:55:35.798Z,1004.99
2018-09-05T03:56:35.821Z,1005.01
2018-09-05T03:57:35.876Z,1005.02
2018-09-05T03:58:35.877Z,1005.05
2018-09-05T03:59:35.919Z,1005.01
2018-09-05T04:00:35.919Z,1005.01
2018-09-05T04:01:35.980Z,1005.06
2018-09-05T04:02:35.962Z,1005.01
2018-09-05T04:03:35.999Z,1005.02
2018-09-05T04:04:36.011Z,1005.06
2018-09-05T04:05:36.042Z,1005.04
2018-09-05T04:06:36.056Z,1005.00
2018-09-05T04:07:36.092Z,1005.00
2018-09-05T04:08:36.107Z,1005.02
2018-09-05T04:09:36.127Z,1005.05
2018-09-05T04:10:36.151Z,1005.04
2018-09-05T04:11:36.172Z,1005.08
2018-09-05T04:12:36.214Z,1005.07
2018-09-05T04:13:36.256Z,1005.09
2018-09-05T04:14:36.241Z,1005.10
2018-09-05T04:15:36.268Z,1005.09
2018-09-05T04:16:36.315Z,1005.10
2018-09-05T04:17:36.329Z,1005.09
2018-09-05T04:18:36.340Z,1005.13
2018-09-05T04:19:36.364Z,1005.08
2018-09-05T04:20:36.383Z,1005.14
2018-09-05T04:21:36.437Z,1005.10
2018-09-05T04:22:36.442Z,1005.07
2018-09-05T04:23:36.450Z,1005.08
2018-09-05T04:24:36.476Z,1005.06
2018-09-05T04:25:36.501Z,1005.07
2018-09-05T04:26:36.521Z,1005.06
2018-09-05T04:27:36.545Z,1005.08
2018-09-05T04:28:36.572Z,1005.10
2018-09-05T04:29:36.684Z,1005.08
2018-09-05T04:30:36.636Z,1005.12
2018-09-05T04:31:36.653Z,1005.08
2018-09-05T04:32:36.658Z,1005.07
2018-09-05T04:33:36.685Z,1005.05
2018-09-05T04:34:36.717Z,1005.06
2018-09-05T04:35:36.727Z,1005.06
2018-09-05T04:36:36.756Z,1005.06
2018-09-05T04:37:36.781Z,1005.10
2018-09-05T04:38:36.801Z,1005.08
2018-09-05T04:39:36.875Z,1005.10
2018-09-05T04:40:36.863Z,1005.07
2018-09-05T04:41:36.863Z,1005.06
2018-09-05T04:42:36.901Z,1005.09
2018-09-05T04:43:36.937Z,1005.06
2018-09-05T04:44:36.939Z,1005.10
2018-09-05T04:45:36.964Z,1005.09
2018-09-05T04:46:36.991Z,1005.08
2018-09-05T04:47:37.009Z,1005.07
2018-09-05T04:48:37.031Z,1005.08
2018-09-05T04:49:37.056Z,1005.10
2018-09-05T04:50:37.084Z,1005.10
2018-09-05T04:51:37.107Z,1005.11
2018-09-05T04:52:37.141Z,1005.13
2018-09-05T04:53:37.154Z,1005.12
2018-09-05T04:54:37.172Z,1005.12
2018-09-05T04:55:37.189Z,1005.14
2018-09-05T04:56:37.295Z,1005.15
2018-09-05T04:57:37.237Z,1005.14
2018-09-05T04:58:37.273Z,1005.13
2018-09-05T04:59:37.292Z,1005.13
2018-09-05T05:01:37.333Z,1005.15
2018-09-05T05:02:37.356Z,1005.13
2018-09-05T05:03:37.409Z,1005.15
2018-09-05T05:04:37.459Z,1005.13
2018-09-05T05:05:37.471Z,1005.16
2018-09-05T05:06:37.445Z,1005.19
2018-09-05T05:07:37.473Z,1005.17
2018-09-05T05:09:37.517Z,1005.17
2018-09-05T05:10:37.553Z,1005.18
2018-09-05T05:11:37.589Z,1005.15
2018-09-05T05:12:37.678Z,1005.20
2018-09-05T05:13:37.613Z,1005.19
2018-09-05T05:14:37.639Z,1005.20
2018-09-05T05:15:37.661Z,1005.21
2018-09-05T05:16:37.689Z,1005.19
2018-09-05T05:17:37.700Z,1005.22
2018-09-05T05:18:37.737Z,1005.23
2018-09-05T05:19:37.748Z,1005.25
2018-09-05T05:20:37.796Z,1005.24
2018-09-05T05:21:37.802Z,1005.25
2018-09-05T05:22:37.870Z,1005.22
2018-09-05T05:23:37.891Z,1005.29
2018-09-05T05:24:37.866Z,1005.32
2018-09-05T05:25:37.893Z,1005.30
2018-09-05T05:26:37.908Z,1005.30
2018-09-05T05:27:37.954Z,1005.31
2018-09-05T05:28:37.959Z,1005.34
2018-09-05T05:29:37.993Z,1005.30
2018-09-05T05:30:38.028Z,1005.32
2018-09-05T05:31:38.035Z,1005.33
2018-09-05T05:32:38.072Z,1005.30
2018-09-05T05:33:38.157Z,1005.29
2018-09-05T05:34:38.111Z,1005.31
2018-09-05T05:35:38.159Z,1005.30
2018-09-05T05:36:38.146Z,1005.32
2018-09-05T05:37:38.165Z,1005.34
2018-09-05T05:38:38.191Z,1005.30
2018-09-05T05:39:38.211Z,1005.30
2018-09-05T05:40:38.236Z,1005.33
2018-09-05T05:41:38.262Z,1005.31
2018-09-05T05:42:38.282Z,1005.35
2018-09-05T05:43:38.308Z,1005.36
2018-09-05T05:44:38.333Z,1005.39
2018-09-05T05:45:38.352Z,1005.37
2018-09-05T05:46:38.478Z,1005.38
2018-09-05T05:47:38.418Z,1005.40
2018-09-05T05:48:38.425Z,1005.39
2018-09-05T05:49:38.466Z,1005.40
2018-09-05T05:50:38.478Z,1005.35
2018-09-05T05:51:38.489Z,1005.37
2018-09-05T05:52:38.525Z,1005.41
2018-09-05T05:53:38.560Z,1005.39
2018-09-05T05:54:38.565Z,1005.38
2018-09-05T05:55:38.591Z,1005.41
2018-09-05T05:56:38.617Z,1005.41
2018-09-05T05:57:38.629Z,1005.44
2018-09-05T05:58:38.658Z,1005.45
2018-09-05T05:59:38.679Z,1005.47
2018-09-05T06:00:38.732Z,1005.48
2018-09-05T06:01:38.735Z,1005.47
2018-09-05T06:02:38.758Z,1005.49
2018-09-05T06:03:38.782Z,1005.48
2018-09-05T06:04:38.793Z,1005.47
2018-09-05T06:05:38.817Z,1005.48
2018-09-05T06:06:38.843Z,1005.44
2018-09-05T06:07:38.866Z,1005.48
2018-09-05T06:08:38.917Z,1005.45
2018-09-05T06:09:38.907Z,1005.50
2018-09-05T06:10:38.965Z,1005.49
2018-09-05T06:11:38.957Z,1005.52
2018-09-05T06:12:38.977Z,1005.46
2018-09-05T06:13:39.010Z,1005.47
2018-09-05T06:14:39.029Z,1005.50
2018-09-05T06:15:39.097Z,1005.51
2018-09-05T06:16:39.072Z,1005.50
2018-09-05T06:17:39.157Z,1005.51
2018-09-05T06:18:39.124Z,1005.52
2018-09-05T06:19:39.135Z,1005.55
2018-09-05T06:20:39.172Z,1005.51
2018-09-05T06:21:39.267Z,1005.52
2018-09-05T06:22:39.214Z,1005.56
2018-09-05T06:23:39.236Z,1005.55
2018-09-05T06:24:39.251Z,1005.52
2018-09-05T06:25:39.288Z,1005.55
2018-09-05T06:26:39.312Z,1005.55
2018-09-05T06:27:39.388Z,1005.57
2018-09-05T06:28:39.343Z,1005.57
2018-09-05T06:29:39.371Z,1005.53
2018-09-05T06:30:39.641Z,1005.56
2018-09-05T06:31:39.437Z,1005.57
2018-09-05T06:32:39.486Z,1005.53
2018-09-05T06:33:39.467Z,1005.52
2018-09-05T06:34:39.494Z,1005.55
2018-09-05T06:35:39.523Z,1005.54
2018-09-05T06:36:39.537Z,1005.55
2018-09-05T06:37:39.559Z,1005.54
2018-09-05T06:38:39.585Z,1005.56
2018-09-05T06:39:39.623Z,1005.53
2018-09-05T06:40:39.622Z,1005.52
2018-09-05T06:41:39.654Z,1005.54
2018-09-05T06:42:39.675Z,1005.56
2018-09-05T06:43:39.750Z,1005.54
2018-09-05T06:44:39.721Z,1005.54
2018-09-05T06:45:39.785Z,1005.54
2018-09-05T06:46:39.765Z,1005.54
2018-09-05T06:47:39.798Z,1005.56
2018-09-05T06:48:39.816Z,1005.54
2018-09-05T06:49:39.839Z,1005.54
2018-09-05T06:50:39.863Z,1005.51
2018-09-05T06:51:39.887Z,1005.54
2018-09-05T06:52:39.910Z,1005.54
2018-09-05T06:53:39.932Z,1005.56
2018-09-05T06:54:39.966Z,1005.56
2018-09-05T06:55:39.982Z,1005.60
2018-09-05T06:56:40.008Z,1005.56
2018-09-05T06:57:40.025Z,1005.59
2018-09-05T06:58:40.050Z,1005.60
2018-09-05T06:59:40.070Z,1005.57
2018-09-05T07:00:40.104Z,1005.58
2018-09-05T07:01:40.122Z,1005.59
2018-09-05T07:02:40.150Z,1005.62
2018-09-05T07:03:40.340Z,1005.61
2018-09-05T07:04:40.193Z,1005.61
2018-09-05T07:05:40.215Z,1005.59
2018-09-05T07:06:40.262Z,1005.63
2018-09-05T07:07:40.360Z,1005.61
2018-09-05T07:08:40.292Z,1005.60
2018-09-05T07:09:40.325Z,1005.66
2018-09-05T07:10:40.349Z,1005.63
2018-09-05T07:11:40.381Z,1005.59
2018-09-05T07:12:40.394Z,1005.60
2018-09-05T07:13:40.411Z,1005.61
2018-09-05T07:14:40.447Z,1005.61
2018-09-05T07:15:40.455Z,1005.61
2018-09-05T07:16:40.478Z,1005.61
2018-09-05T07:17:40.573Z,1005.61
2018-09-05T07:18:40.604Z,1005.62
2018-09-05T07:19:40.548Z,1005.63
2018-09-05T07:20:40.601Z,1005.61
2018-09-05T07:21:40.598Z,1005.62
2018-09-05T07:22:40.612Z,1005.62
2018-09-05T07:23:40.644Z,1005.64
2018-09-05T07:24:40.676Z,1005.64
2018-09-05T07:25:40.687Z,1005.63
2018-09-05T07:26:40.712Z,1005.60
2018-09-05T07:27:40.762Z,1005.60
2018-09-05T07:28:40.753Z,1005.61
2018-09-05T07:29:40.775Z,1005.64
2018-09-05T07:30:40.840Z,1005.63
2018-09-05T07:31:40.878Z,1005.67
2018-09-05T07:32:40.850Z,1005.60
2018-09-05T07:33:40.879Z,1005.62
2018-09-05T07:34:40.901Z,1005.62
2018-09-05T07:35:40.962Z,1005.64
2018-09-05T07:36:40.945Z,1005.63
2018-09-05T07:37:40.971Z,1005.65
2018-09-05T07:38:40.999Z,1005.65
2018-09-05T07:39:41.013Z,1005.59
2018-09-05T07:40:41.047Z,1005.65
2018-09-05T07:41:41.071Z,1005.65
2018-09-05T07:42:41.140Z,1005.61
2018-09-05T07:43:41.123Z,1005.64
2018-09-05T07:44:41.152Z,1005.61
2018-09-05T07:45:41.158Z,1005.64
2018-09-05T07:46:41.191Z,1005.63
2018-09-05T07:47:41.209Z,1005.66
2018-09-05T07:48:41.227Z,1005.65
2018-09-05T07:49:41.306Z,1005.65
2018-09-05T07:50:41.334Z,1005.66
2018-09-05T07:51:41.305Z,1005.66
2018-09-05T07:52:41.328Z,1005.69
2018-09-05T07:53:41.372Z,1005.65
2018-09-05T07:54:41.372Z,1005.70
2018-09-05T07:55:41.418Z,1005.64
2018-09-05T07:56:41.437Z,1005.67
2018-09-05T07:57:41.442Z,1005.72
2018-09-05T07:58:41.491Z,1005.70
2018-09-05T07:59:41.502Z,1005.69
2018-09-05T08:00:41.528Z,1005.68
2018-09-05T08:01:41.542Z,1005.67
2018-09-05T08:02:41.582Z,1005.65
2018-09-05T08:03:41.592Z,1005.66
2018-09-05T08:04:41.617Z,1005.64
2018-09-05T08:05:41.649Z,1005.63
2018-09-05T08:06:41.735Z,1005.65
2018-09-05T08:07:41.685Z,1005.64
2018-09-05T08:08:41.712Z,1005.65
2018-09-05T08:09:41.758Z,1005.61
2018-09-05T08:10:41.760Z,1005.65
2018-09-05T08:11:41.830Z,1005.66
2018-09-05T08:12:41.803Z,1005.65
2018-09-05T08:13:41.830Z,1005.64
2018-09-05T08:14:41.862Z,1005.66
2018-09-05T08:15:41.886Z,1005.67
2018-09-05T08:16:41.903Z,1005.66
2018-09-05T08:17:42.070Z,1005.65
2018-09-05T08:18:41.965Z,1005.67
2018-09-05T08:19:41.984Z,1005.67
2018-09-05T08:20:41.997Z,1005.63
2018-09-05T08:21:42.031Z,1005.66
2018-09-05T08:22:42.053Z,1005.66
2018-09-05T08:23:42.081Z,1005.66
2018-09-05T08:24:42.166Z,1005.63
2018-09-05T08:25:42.132Z,1005.63
2018-09-05T08:26:42.153Z,1005.60
2018-09-05T08:27:42.181Z,1005.64
2018-09-05T08:28:42.274Z,1005.63
2018-09-05T08:29:42.222Z,1005.65
2018-09-05T08:30:42.249Z,1005.58
2018-09-05T08:31:42.274Z,1005.62
2018-09-05T08:32:42.294Z,1005.60
2018-09-05T08:33:42.323Z,1005.63
2018-09-05T08:34:42.410Z,1005.59
2018-09-05T08:35:42.578Z,1005.63
2018-09-05T08:36:42.635Z,1005.61
2018-09-05T08:37:42.499Z,1005.57
2018-09-05T08:38:42.453Z,1005.54
2018-09-05T08:39:42.469Z,1005.56
2018-09-05T08:40:42.493Z,1005.59
2018-09-05T08:41:42.772Z,1005.59
2018-09-05T08:42:42.586Z,1005.57
2018-09-05T08:43:42.741Z,1005.58
2018-09-05T08:44:42.713Z,1005.56
2018-09-05T08:45:42.803Z,1005.59
2018-09-05T08:46:42.658Z,1005.56
2018-09-05T08:47:42.800Z,1005.60
2018-09-05T08:48:42.761Z,1005.58
2018-09-05T08:49:42.713Z,1005.57
2018-09-05T08:50:42.757Z,1005.60
2018-09-05T08:51:42.767Z,1005.54
2018-09-05T08:52:42.800Z,1005.57
2018-09-05T08:53:42.820Z,1005.55
2018-09-05T08:54:42.839Z,1005.55
2018-09-05T08:55:42.873Z,1005.54
2018-09-05T08:56:42.903Z,1005.53
2018-09-05T08:57:42.923Z,1005.53
2018-09-05T08:58:42.952Z,1005.52
2018-09-05T08:59:42.972Z,1005.50
2018-09-05T09:00:42.989Z,1005.53
2018-09-05T09:01:43.018Z,1005.54
2018-09-05T09:02:43.042Z,1005.51
2018-09-05T09:03:43.103Z,1005.49
2018-09-05T09:04:43.150Z,1005.49
2018-09-05T09:05:43.108Z,1005.51
2018-09-05T09:06:43.143Z,1005.51
2018-09-05T09:07:43.174Z,1005.54
2018-09-05T09:08:43.194Z,1005.53
2018-09-05T09:09:43.210Z,1005.53
2018-09-05T09:10:43.235Z,1005.56
2018-09-05T09:11:43.316Z,1005.65
2018-09-05T09:12:43.290Z,1005.62
2018-09-05T09:13:43.312Z,1005.57
2018-09-05T09:14:43.336Z,1005.58
2018-09-05T09:15:43.363Z,1005.53
2018-09-05T09:16:43.387Z,1005.46
2018-09-05T09:17:43.406Z,1005.45
2018-09-05T09:18:43.439Z,1005.47
2018-09-05T09:19:43.465Z,1005.47
2018-09-05T09:20:43.486Z,1005.47
2018-09-05T09:21:43.545Z,1005.47
2018-09-05T09:22:43.538Z,1005.44
2018-09-05T09:23:43.570Z,1005.39
2018-09-05T09:24:43.590Z,1005.43
2018-09-05T09:25:43.643Z,1005.37
2018-09-05T09:26:43.646Z,1005.44
2018-09-05T09:27:43.683Z,1005.40
2018-09-05T09:28:43.696Z,1005.41
2018-09-05T09:29:43.722Z,1005.38
2018-09-05T09:30:43.755Z,1005.38
2018-09-05T09:31:43.782Z,1005.33
2018-09-05T09:32:43.796Z,1005.34
2018-09-05T09:33:43.825Z,1005.31
2018-09-05T09:34:43.848Z,1005.31
2018-09-05T09:35:43.880Z,1005.23
2018-09-05T09:36:43.901Z,1005.24
2018-09-05T09:37:43.929Z,1005.21
2018-09-05T09:38:43.954Z,1005.23
2018-09-05T09:39:43.980Z,1005.17
2018-09-05T09:40:44.006Z,1005.23
2018-09-05T09:41:44.031Z,1005.19
2018-09-05T09:42:44.056Z,1005.21
2018-09-05T09:43:44.082Z,1005.15
2018-09-05T09:44:44.118Z,1005.13
2018-09-05T09:45:44.130Z,1005.15
2018-09-05T09:46:44.256Z,1005.12
2018-09-05T09:47:44.194Z,1005.12
2018-09-05T09:48:44.210Z,1005.12
2018-09-05T09:49:44.246Z,1005.07
2018-09-05T09:50:44.268Z,1005.10
2018-09-05T09:51:44.307Z,1005.05
2018-09-05T09:52:44.308Z,1005.06
2018-09-05T09:53:44.343Z,1005.01
2018-09-05T09:54:44.366Z,1005.03
2018-09-05T09:55:44.396Z,1005.00
2018-09-05T09:56:44.499Z,1004.98
2018-09-05T09:57:44.441Z,1004.98
2018-09-05T09:58:44.472Z,1005.02
2018-09-05T09:59:44.493Z,1005.04
2018-09-05T10:00:44.522Z,1005.02
2018-09-05T10:01:44.548Z,1004.97
2018-09-05T10:02:44.590Z,1004.93
2018-09-05T10:03:44.713Z,1004.91
2018-09-05T10:04:44.633Z,1004.93
2018-09-05T10:05:44.644Z,1004.90
2018-09-05T10:06:44.687Z,1004.88
2018-09-05T10:07:44.689Z,1004.84
2018-09-05T10:08:44.719Z,1004.87
2018-09-05T10:09:44.840Z,1004.89
2018-09-05T10:10:44.781Z,1004.83
2018-09-05T10:11:44.797Z,1004.83
2018-09-05T10:13:44.859Z,1004.80
2018-09-05T10:14:44.947Z,1004.81
2018-09-05T10:15:44.902Z,1004.83
2018-09-05T10:16:44.981Z,1004.82
2018-09-05T10:17:44.955Z,1004.76
2018-09-05T10:18:44.985Z,1004.77
2018-09-05T10:19:45.007Z,1004.75
2018-09-05T10:20:45.120Z,1004.73
2018-09-05T10:21:45.059Z,1004.70
2018-09-05T10:22:45.121Z,1004.69
2018-09-05T10:23:45.104Z,1004.69
2018-09-05T10:24:45.131Z,1004.66
2018-09-05T10:25:45.161Z,1004.69
2018-09-05T10:26:45.182Z,1004.65
2018-09-05T10:27:45.207Z,1004.63
2018-09-05T10:28:45.228Z,1004.64
2018-09-05T10:29:45.282Z,1004.60
2018-09-05T10:31:45.455Z,1004.60
2018-09-05T10:32:45.339Z,1004.58
2018-09-05T10:33:45.360Z,1004.54
2018-09-05T10:34:45.396Z,1004.55
2018-09-05T10:35:45.418Z,1004.56
2018-09-05T10:36:45.448Z,1004.58
2018-09-05T10:37:45.476Z,1004.56
2018-09-05T10:38:45.502Z,1004.66
2018-09-05T10:39:45.531Z,1004.58
2018-09-05T10:40:45.544Z,1004.63
2018-09-05T10:41:45.581Z,1004.63
2018-09-05T10:42:45.594Z,1004.62
2018-09-05T10:43:45.637Z,1004.62
2018-09-05T10:44:45.757Z,1004.57
2018-09-05T10:45:45.662Z,1004.54
2018-09-05T10:46:45.700Z,1004.53
2018-09-05T10:47:45.724Z,1004.55
2018-09-05T10:48:45.742Z,1004.51
2018-09-05T10:49:45.779Z,1004.48
2018-09-05T10:51:45.867Z,1004.44
2018-09-05T10:52:45.856Z,1004.49
2018-09-05T10:53:45.889Z,1004.52
2018-09-05T10:54:45.930Z,1004.47
2018-09-05T10:56:45.954Z,1004.39
2018-09-05T10:57:45.991Z,1004.44
2018-09-05T10:58:46.005Z,1004.46
2018-09-05T10:59:46.044Z,1004.45
2018-09-05T11:01:46.081Z,1004.42
2018-09-05T11:02:46.105Z,1004.41
2018-09-05T11:03:46.134Z,1004.43
2018-09-05T11:04:46.171Z,1004.40
2018-09-05T11:05:46.197Z,1004.37
2018-09-05T11:06:46.279Z,1004.33
2018-09-05T11:07:46.258Z,1004.37
2018-09-05T11:08:46.271Z,1004.35
2018-09-05T11:09:46.285Z,1004.34
2018-09-05T11:10:46.342Z,1004.31
2018-09-05T11:11:46.345Z,1004.29
2018-09-05T11:12:46.369Z,1004.31
2018-09-05T11:13:46.408Z,1004.29
2018-09-05T11:14:46.422Z,1004.34
2018-09-05T11:16:46.478Z,1004.31
2018-09-05T11:17:46.539Z,1004.26
2018-09-05T11:18:46.539Z,1004.25
2018-09-05T11:19:46.593Z,1004.23
2018-09-05T11:20:46.602Z,1004.22
2018-09-05T11:21:46.607Z,1004.24
2018-09-05T11:22:46.653Z,1004.28
2018-09-05T11:23:46.662Z,1004.32
2018-09-05T11:24:46.696Z,1004.28
2018-09-05T11:25:46.715Z,1004.30
2018-09-05T11:26:46.736Z,1004.24
2018-09-05T11:27:46.881Z,1004.29
2018-09-05T11:28:46.792Z,1004.27
2018-09-05T11:29:46.815Z,1004.28
2018-09-05T11:30:46.855Z,1004.26
2018-09-05T11:31:46.870Z,1004.27
2018-09-05T11:32:46.897Z,1004.19
2018-09-05T11:33:46.932Z,1004.24
2018-09-05T11:34:46.948Z,1004.26
2018-09-05T11:35:46.977Z,1004.23
2018-09-05T11:36:47.011Z,1004.21
2018-09-05T11:37:47.030Z,1004.19
2018-09-05T11:38:47.055Z,1004.22
2018-09-05T11:39:47.106Z,1004.23
2018-09-05T11:40:47.144Z,1004.23
2018-09-05T11:41:47.171Z,1004.13
2018-09-05T11:42:47.172Z,1004.13
2018-09-05T11:43:47.193Z,1004.15
2018-09-05T11:44:47.214Z,1004.12
2018-09-05T11:45:47.252Z,1004.15
2018-09-05T11:46:47.275Z,1004.09
2018-09-05T11:47:47.313Z,1004.10
2018-09-05T11:48:47.324Z,1004.16
2018-09-05T11:49:47.353Z,1004.10
2018-09-05T11:50:47.377Z,1004.10
2018-09-05T11:51:47.430Z,1004.11
2018-09-05T11:52:48.272Z,1004.11
2018-09-05T11:53:47.467Z,1004.08
2018-09-05T11:54:47.490Z,1004.03
2018-09-05T11:55:47.510Z,1004.01
2018-09-05T11:56:47.550Z,1004.03
2018-09-05T11:57:47.568Z,1004.02
2018-09-05T11:58:47.598Z,1004.05
2018-09-05T11:59:47.725Z,1004.04
2018-09-05T12:00:47.662Z,1004.02
2018-09-05T12:01:47.684Z,1003.99
2018-09-05T12:02:47.732Z,1004.01
2018-09-05T12:03:47.729Z,1004.01
2018-09-05T12:04:47.773Z,1004.01
2018-09-05T12:05:47.793Z,1003.98
2018-09-05T12:06:48.713Z,1003.96
2018-09-05T12:07:47.848Z,1003.97
2018-09-05T12:08:47.878Z,1003.94
2018-09-05T12:09:47.899Z,1003.95
2018-09-05T12:10:47.927Z,1003.86
2018-09-05T12:11:47.988Z,1003.89
2018-09-05T12:12:48.042Z,1003.89
2018-09-05T12:13:48.025Z,1003.89
2018-09-05T12:14:48.047Z,1003.93
2018-09-05T12:15:48.080Z,1003.90